Time;durP1;ratioP1;P1;durP2;ratioP2;P2;SDS_P1;SDS_P2;PMS_P1;PMS_P2;Temp;Humidity;BMP_temperature;BMP_pressure;BME280_temperature;BME280_humidity;BME280_pressure;Samples;Min_cycle;Max_cycle;Signal;HPM_P1;HPM_P2
2021/10/05 00:01:14;;;;;;;4.42;3.35;;;9.50;92.30;;;;;;1905404;75;21532;-47
2021/10/05 00:03:43;;;;;;;7.83;6.00;;;9.50;92.20;;;;;;1905306;74;21023;-48
2021/10/05 00:06:13;;;;;;;5.53;4.53;;;9.50;92.30;;;;;;1905333;75;20999;-46
2021/10/05 00:08:42;;;;;;;3.58;2.85;;;9.50;92.20;;;;;;1905347;75;21534;-48
2021/10/05 00:11:12;;;;;;;5.33;3.87;;;9.50;92.30;;;;;;1905201;74;20996;-46
2021/10/05 00:13:42;;;;;;;7.17;4.83;;;9.40;92.10;;;;;;1905322;75;21089;-44
2021/10/05 00:16:11;;;;;;;5.78;4.05;;;9.50;92.10;;;;;;1905314;75;21085;-46
2021/10/05 00:18:41;;;;;;;6.75;5.40;;;9.40;92.10;;;;;;1905333;75;21020;-45
2021/10/05 00:21:10;;;;;;;6.37;5.25;;;9.40;92.10;;;;;;1905322;75;21019;-46
2021/10/05 00:23:40;;;;;;;6.67;5.03;;;9.40;92.00;;;;;;1905273;75;21090;-47
2021/10/05 00:26:09;;;;;;;4.72;3.33;;;9.40;92.10;;;;;;1905273;75;21097;-44
2021/10/05 00:28:39;;;;;;;5.35;4.33;;;9.40;92.00;;;;;;1905225;75;21035;-47
2021/10/05 00:31:08;;;;;;;7.20;5.25;;;9.40;91.90;;;;;;1905288;75;21019;-49
2021/10/05 00:33:38;;;;;;;6.80;5.00;;;9.40;92.00;;;;;;1905288;75;21043;-45
2021/10/05 00:36:08;;;;;;;6.72;4.75;;;9.40;92.00;;;;;;1905239;74;21019;-46
2021/10/05 00:38:37;;;;;;;5.30;4.28;;;9.40;91.90;;;;;;1905412;75;21024;-46
2021/10/05 00:41:06;;;;;;;8.98;5.37;;;9.40;91.90;;;;;;1905361;74;21473;-49
2021/10/05 00:43:36;;;;;;;9.23;4.20;;;9.40;91.80;;;;;;1905385;75;21087;-48
2021/10/05 00:46:05;;;;;;;9.70;4.90;;;9.40;91.80;;;;;;1905296;75;21027;-46
2021/10/05 00:48:35;;;;;;;6.30;4.85;;;9.40;91.90;;;;;;1905198;75;21023;-46
2021/10/05 00:51:04;;;;;;;5.87;4.37;;;9.40;91.80;;;;;;1905311;75;21093;-47
2021/10/05 00:53:34;;;;;;;6.72;5.37;;;9.40;92.00;;;;;;1905270;75;21015;-46
2021/10/05 00:56:04;;;;;;;5.83;4.28;;;9.40;91.80;;;;;;1905267;75;21145;-48
2021/10/05 00:58:33;;;;;;;7.42;4.50;;;9.30;91.70;;;;;;1905235;74;21024;-44
2021/10/05 01:01:03;;;;;;;5.60;4.00;;;9.30;91.80;;;;;;1905338;74;21019;-45
2021/10/05 01:03:32;;;;;;;3.12;2.80;;;9.40;91.80;;;;;;1905300;74;21077;-46
2021/10/05 01:06:01;;;;;;;4.67;3.87;;;9.30;91.60;;;;;;1905292;74;21012;-49
2021/10/05 01:08:32;;;;;;;5.10;4.08;;;9.30;91.60;;;;;;1905333;75;21035;-47
2021/10/05 01:11:01;;;;;;;3.55;2.92;;;9.30;91.70;;;;;;1905293;75;21077;-49
2021/10/05 01:13:32;;;;;;;3.20;2.90;;;9.30;91.50;;;;;;1905421;75;21155;-47
2021/10/05 01:16:01;;;;;;;3.87;2.87;;;9.30;91.60;;;;;;1905477;75;20991;-49
2021/10/05 01:18:31;;;;;;;6.97;4.70;;;9.30;91.80;;;;;;1905517;75;21073;-48
2021/10/05 01:21:03;;;;;;;4.08;2.83;;;9.20;91.60;;;;;;1905527;75;21035;-50
2021/10/05 01:23:37;;;;;;;4.28;3.15;;;9.20;91.70;;;;;;1905627;75;21027;-50
2021/10/05 01:26:06;;;;;;;3.62;3.33;;;9.20;91.60;;;;;;1905465;75;21019;-49
2021/10/05 01:28:36;;;;;;;4.70;3.92;;;9.20;91.60;;;;;;1905443;75;21024;-49
2021/10/05 01:31:05;;;;;;;4.15;3.42;;;9.20;91.70;;;;;;1905587;75;21093;-50
2021/10/05 01:33:35;;;;;;;4.62;3.55;;;9.20;91.60;;;;;;1905597;75;21020;-51
2021/10/05 01:36:04;;;;;;;4.55;3.52;;;9.20;91.70;;;;;;1905480;75;21020;-50
2021/10/05 01:38:34;;;;;;;3.67;2.67;;;9.20;91.70;;;;;;1905588;75;21019;-49
2021/10/05 01:41:03;;;;;;;3.37;3.05;;;9.20;91.60;;;;;;1905513;75;21023;-49
2021/10/05 01:43:33;;;;;;;4.10;3.40;;;9.20;91.60;;;;;;1905519;74;21017;-50
2021/10/05 01:46:03;;;;;;;3.92;3.12;;;9.20;91.60;;;;;;1905507;75;21046;-49
2021/10/05 01:48:33;;;;;;;3.67;2.60;;;9.20;91.70;;;;;;1905393;75;21504;-49
2021/10/05 01:51:02;;;;;;;2.62;2.12;;;9.20;91.70;;;;;;1905312;75;21077;-49
2021/10/05 01:53:32;;;;;;;3.08;2.52;;;9.20;91.60;;;;;;1905363;75;21085;-48
2021/10/05 01:56:01;;;;;;;4.37;3.80;;;9.20;91.60;;;;;;1905366;74;21105;-47
2021/10/05 01:58:31;;;;;;;3.42;2.77;;;9.20;91.60;;;;;;1905448;74;21024;-51
2021/10/05 02:01:01;;;;;;;4.12;3.62;;;9.20;91.70;;;;;;1905337;74;21051;-49
2021/10/05 02:03:31;;;;;;;4.25;3.70;;;9.20;91.70;;;;;;1905444;74;21027;-51
2021/10/05 02:06:01;;;;;;;4.28;3.35;;;9.20;91.60;;;;;;1905446;75;21011;-50
2021/10/05 02:08:30;;;;;;;4.25;3.85;;;9.30;91.70;;;;;;1905411;74;21085;-48
2021/10/05 02:11:00;;;;;;;3.20;2.60;;;9.20;91.70;;;;;;1905423;75;21094;-50
2021/10/05 02:13:30;;;;;;;4.03;3.55;;;9.20;91.60;;;;;;1905477;74;21023;-48
2021/10/05 02:16:00;;;;;;;4.37;3.00;;;9.20;91.70;;;;;;1905316;75;21019;-50
2021/10/05 02:18:29;;;;;;;3.75;3.05;;;9.30;91.70;;;;;;1905485;75;21626;-49
2021/10/05 02:20:59;;;;;;;4.33;3.35;;;9.30;91.70;;;;;;1905388;75;21019;-50
2021/10/05 02:26:11;;;;;;;3.30;2.65;;;9.30;91.70;;;;;;1859515;74;21098;-50
2021/10/05 02:28:41;;;;;;;6.87;3.58;;;9.20;91.60;;;;;;1905390;75;21040;-49
2021/10/05 02:31:10;;;;;;;3.08;2.62;;;9.30;91.60;;;;;;1905322;75;21020;-48
2021/10/05 02:33:40;;;;;;;3.90;2.80;;;9.30;91.80;;;;;;1905413;74;21102;-48
2021/10/05 02:36:09;;;;;;;2.65;2.30;;;9.30;91.70;;;;;;1905329;75;21023;-47
2021/10/05 02:38:39;;;;;;;3.35;2.90;;;9.20;91.70;;;;;;1905471;74;21019;-49
2021/10/05 02:41:08;;;;;;;3.30;2.33;;;9.20;91.70;;;;;;1905320;75;21043;-49
2021/10/05 02:43:38;;;;;;;3.15;2.15;;;9.30;91.80;;;;;;1905365;75;21067;-49
2021/10/05 02:46:08;;;;;;;2.95;2.52;;;9.20;92.10;;;;;;1905554;75;21165;-49
2021/10/05 02:48:37;;;;;;;3.67;2.55;;;9.20;91.90;;;;;;1905391;74;21148;-45
2021/10/05 02:51:06;;;;;;;4.75;3.37;;;9.20;91.90;;;;;;1905325;75;21105;-48
2021/10/05 02:53:36;;;;;;;3.95;3.30;;;9.20;92.00;;;;;;1905378;74;21097;-45
2021/10/05 02:56:07;;;;;;;5.00;3.08;;;9.20;92.00;;;;;;1905323;75;21761;-47
2021/10/05 02:58:36;;;;;;;3.62;3.15;;;9.20;92.00;;;;;;1905326;75;21027;-48
2021/10/05 03:01:06;;;;;;;3.15;2.40;;;9.20;92.00;;;;;;1916922;74;21063;-47
2021/10/05 03:03:35;;;;;;;5.78;3.55;;;9.30;92.00;;;;;;1924721;74;21023;-45
2021/10/05 03:06:05;;;;;;;6.22;3.55;;;9.20;92.00;;;;;;1924688;74;21022;-48
2021/10/05 03:08:36;;;;;;;4.60;3.22;;;9.20;92.00;;;;;;1924802;74;21022;-45
2021/10/05 03:11:05;;;;;;;2.85;2.15;;;9.20;92.00;;;;;;1924772;74;21468;-47
2021/10/05 03:13:35;;;;;;;3.95;3.33;;;9.20;92.00;;;;;;1924716;74;20995;-48
2021/10/05 03:16:06;;;;;;;4.62;3.02;;;9.20;92.00;;;;;;1924793;74;21035;-48
2021/10/05 03:18:38;;;;;;;2.72;2.40;;;9.20;92.00;;;;;;1924692;74;21054;-46
2021/10/05 03:21:07;;;;;;;3.00;2.33;;;9.30;92.10;;;;;;1924737;74;21104;-49
2021/10/05 03:23:37;;;;;;;4.05;2.70;;;9.30;92.00;;;;;;1924832;74;21118;-49
2021/10/05 03:26:06;;;;;;;4.00;3.40;;;9.30;92.00;;;;;;1924704;74;20999;-49
2021/10/05 03:28:36;;;;;;;3.55;2.40;;;9.20;92.00;;;;;;1924749;74;21092;-48
2021/10/05 03:31:05;;;;;;;2.67;2.12;;;9.20;92.00;;;;;;1924651;74;21002;-46
2021/10/05 03:33:34;;;;;;;1.82;1.72;;;9.30;92.00;;;;;;1924696;74;21085;-49
2021/10/05 03:36:04;;;;;;;2.85;2.55;;;9.30;92.10;;;;;;1924764;74;21015;-45
2021/10/05 03:38:34;;;;;;;3.77;3.02;;;9.30;92.10;;;;;;1924708;74;21019;-45
2021/10/05 03:41:03;;;;;;;3.05;2.75;;;9.30;92.10;;;;;;1924681;74;21097;-48
2021/10/05 03:43:33;;;;;;;2.75;2.05;;;9.30;92.10;;;;;;1924638;74;21022;-47
2021/10/05 03:46:03;;;;;;;4.85;2.90;;;9.30;92.30;;;;;;1924636;74;21018;-47
2021/10/05 03:48:33;;;;;;;2.42;2.10;;;9.30;92.30;;;;;;1924601;74;21023;-45
2021/10/05 03:51:02;;;;;;;5.53;2.77;;;9.20;92.30;;;;;;1924548;74;21022;-48
2021/10/05 03:53:32;;;;;;;2.85;2.35;;;9.20;92.20;;;;;;1924583;74;21014;-45
2021/10/05 03:56:01;;;;;;;2.75;2.40;;;9.20;92.40;;;;;;1924518;74;21051;-47
2021/10/05 03:58:31;;;;;;;6.55;2.33;;;9.30;92.50;;;;;;1924592;74;21084;-47
2021/10/05 04:01:03;;;;;;;2.50;2.10;;;9.20;92.50;;;;;;1924645;74;21488;-47
2021/10/05 04:03:31;;;;;;;2.47;2.10;;;9.30;92.50;;;;;;1924724;74;21026;-46
2021/10/05 04:06:01;;;;;;;4.22;3.05;;;9.20;92.60;;;;;;1924669;74;21019;-47
2021/10/05 04:08:30;;;;;;;3.92;2.95;;;9.20;92.60;;;;;;1924724;74;21096;-45
2021/10/05 04:11:01;;;;;;;5.47;3.10;;;9.20;92.60;;;;;;1924715;74;21035;-46
2021/10/05 04:13:30;;;;;;;3.25;2.55;;;9.20;92.70;;;;;;1924677;74;21013;-49
2021/10/05 04:16:00;;;;;;;3.20;2.70;;;9.20;92.70;;;;;;1924631;74;21081;-46
2021/10/05 04:18:29;;;;;;;3.40;2.50;;;9.20;92.70;;;;;;1924749;74;21136;-48
2021/10/05 04:20:59;;;;;;;3.35;2.50;;;9.30;92.70;;;;;;1924575;74;21019;-46
2021/10/05 04:23:28;;;;;;;2.65;1.82;;;9.30;92.80;;;;;;1924667;74;21015;-47
2021/10/05 04:25:57;;;;;;;3.47;2.95;;;9.20;92.90;;;;;;1924726;74;20995;-46
2021/10/05 04:28:27;;;;;;;3.22;2.52;;;9.20;92.90;;;;;;1924696;74;21101;-47
2021/10/05 04:30:57;;;;;;;3.17;2.70;;;9.20;93.00;;;;;;1924601;74;21140;-45
2021/10/05 04:33:26;;;;;;;4.80;3.08;;;9.20;93.10;;;;;;1924691;74;21084;-49
2021/10/05 04:35:56;;;;;;;4.25;3.27;;;9.20;93.20;;;;;;1925044;74;21101;-46
2021/10/05 04:38:25;;;;;;;5.72;3.60;;;9.20;93.10;;;;;;1924782;74;20998;-45
2021/10/05 04:40:55;;;;;;;4.50;3.60;;;9.20;93.20;;;;;;1924725;74;21022;-46
2021/10/05 04:43:24;;;;;;;4.90;3.20;;;9.20;93.10;;;;;;1924752;74;21051;-46
2021/10/05 04:45:53;;;;;;;3.08;2.58;;;9.20;93.20;;;;;;1924709;74;21080;-47
2021/10/05 04:48:23;;;;;;;3.83;2.47;;;9.20;93.30;;;;;;1924681;74;21153;-48
2021/10/05 04:50:52;;;;;;;4.72;3.83;;;9.20;93.30;;;;;;1924711;74;20999;-49
2021/10/05 04:53:21;;;;;;;2.77;2.37;;;9.20;93.30;;;;;;1924786;74;21019;-46
2021/10/05 04:55:51;;;;;;;5.67;3.40;;;9.20;93.30;;;;;;1924770;74;20999;-47
2021/10/05 04:58:20;;;;;;;3.83;2.85;;;9.20;93.40;;;;;;1924783;74;21077;-45
2021/10/05 05:00:50;;;;;;;4.45;3.80;;;9.20;93.40;;;;;;1924771;74;21477;-45
2021/10/05 05:03:21;;;;;;;5.50;3.72;;;9.20;93.40;;;;;;1924812;74;21066;-48
2021/10/05 05:05:51;;;;;;;6.62;5.30;;;9.20;93.40;;;;;;1924732;74;21023;-49
2021/10/05 05:08:20;;;;;;;5.85;3.30;;;9.20;93.40;;;;;;1924706;74;20998;-45
2021/10/05 05:10:49;;;;;;;4.30;3.22;;;9.20;93.50;;;;;;1924769;74;21022;-49
2021/10/05 05:13:19;;;;;;;3.87;2.95;;;9.20;93.50;;;;;;1924679;74;21094;-45
2021/10/05 05:15:49;;;;;;;4.20;3.80;;;9.20;93.60;;;;;;1924703;74;21066;-49
2021/10/05 05:18:18;;;;;;;3.55;2.30;;;9.20;93.50;;;;;;1924794;74;21104;-45
2021/10/05 05:20:47;;;;;;;3.10;2.75;;;9.20;93.50;;;;;;1924770;74;21022;-48
2021/10/05 05:23:17;;;;;;;4.35;3.58;;;9.30;93.60;;;;;;1924777;74;21163;-48
2021/10/05 05:25:46;;;;;;;6.00;3.75;;;9.30;93.50;;;;;;1924911;74;20995;-47
2021/10/05 05:28:15;;;;;;;8.60;4.58;;;9.30;93.50;;;;;;1924871;74;21011;-48
2021/10/05 05:30:45;;;;;;;3.98;3.58;;;9.30;93.60;;;;;;1924904;74;21019;-47
2021/10/05 05:33:14;;;;;;;3.40;2.87;;;9.30;93.60;;;;;;1924832;74;21127;-46
2021/10/05 05:35:45;;;;;;;4.25;2.58;;;9.30;93.60;;;;;;1924827;74;21080;-46
2021/10/05 05:38:15;;;;;;;5.60;3.35;;;9.30;93.50;;;;;;1924921;74;21093;-46
2021/10/05 05:40:44;;;;;;;6.10;4.22;;;9.30;93.50;;;;;;1924750;74;21089;-49
2021/10/05 05:43:14;;;;;;;2.10;1.90;;;9.30;93.60;;;;;;1924745;74;21031;-46
2021/10/05 05:45:43;;;;;;;3.22;2.92;;;9.30;93.50;;;;;;1924778;74;21088;-48
2021/10/05 05:48:13;;;;;;;2.95;2.33;;;9.30;93.60;;;;;;1924623;74;21043;-47
2021/10/05 05:50:42;;;;;;;2.75;2.42;;;9.30;93.60;;;;;;1924545;74;21073;-46
2021/10/05 05:53:12;;;;;;;3.70;2.85;;;9.30;93.60;;;;;;1924671;74;21116;-49
2021/10/05 05:55:41;;;;;;;4.97;3.27;;;9.30;93.60;;;;;;1924584;74;21019;-47
2021/10/05 05:58:15;;;;;;;2.52;1.92;;;9.30;93.60;;;;;;1924587;74;21013;-48
2021/10/05 06:00:46;;;;;;;5.22;3.50;;;9.30;93.80;;;;;;1924723;74;21015;-48
2021/10/05 06:03:16;;;;;;;3.92;2.75;;;9.30;93.60;;;;;;1909107;74;21035;-51
2021/10/05 06:05:46;;;;;;;5.12;2.83;;;9.30;93.60;;;;;;1905308;74;21027;-45
2021/10/05 06:08:15;;;;;;;3.98;3.27;;;9.30;93.60;;;;;;1905179;75;21089;-47
2021/10/05 06:10:45;;;;;;;3.50;2.47;;;9.30;93.60;;;;;;1905316;75;21036;-48
2021/10/05 06:13:14;;;;;;;3.17;2.83;;;9.30;93.50;;;;;;1905329;75;21019;-49
2021/10/05 06:15:44;;;;;;;3.87;3.10;;;9.30;93.60;;;;;;1905246;75;21504;-48
2021/10/05 06:18:13;;;;;;;4.37;2.40;;;9.30;93.50;;;;;;1905261;75;21028;-49
2021/10/05 06:20:42;;;;;;;4.95;3.70;;;9.40;93.60;;;;;;1905234;75;21070;-46
2021/10/05 06:23:12;;;;;;;5.75;3.20;;;9.30;93.50;;;;;;1905270;75;21015;-47
2021/10/05 06:25:42;;;;;;;4.33;3.52;;;9.30;93.50;;;;;;1905237;75;21000;-49
2021/10/05 06:28:11;;;;;;;3.25;2.87;;;9.40;93.60;;;;;;1905334;75;21000;-45
2021/10/05 06:30:40;;;;;;;3.62;2.90;;;9.40;93.60;;;;;;1905351;75;21081;-46
2021/10/05 06:33:09;;;;;;;2.17;1.90;;;9.40;93.60;;;;;;1905241;75;21031;-47
2021/10/05 06:35:39;;;;;;;4.22;2.30;;;9.40;93.60;;;;;;1905193;74;21067;-46
2021/10/05 06:38:08;;;;;;;4.33;3.37;;;9.40;93.60;;;;;;1905338;75;21107;-45
2021/10/05 06:40:38;;;;;;;2.95;2.62;;;9.40;93.60;;;;;;1905188;74;21148;-46
2021/10/05 06:43:08;;;;;;;4.53;3.12;;;9.40;93.60;;;;;;1905357;74;21093;-46
2021/10/05 06:45:37;;;;;;;4.12;3.15;;;9.40;93.50;;;;;;1905223;75;20995;-51
2021/10/05 06:48:08;;;;;;;4.78;3.42;;;9.40;93.60;;;;;;1905176;75;21023;-47
2021/10/05 06:50:37;;;;;;;4.75;3.37;;;9.40;93.60;;;;;;1905294;75;21039;-48
2021/10/05 06:53:07;;;;;;;3.17;2.40;;;9.40;93.50;;;;;;1905185;74;21023;-47
2021/10/05 06:55:36;;;;;;;3.50;2.80;;;9.40;93.60;;;;;;1905322;75;21007;-45
2021/10/05 06:58:06;;;;;;;3.20;2.70;;;9.40;93.60;;;;;;1905477;74;21027;-45
2021/10/05 07:00:36;;;;;;;5.20;3.77;;;9.40;93.60;;;;;;1905334;75;21020;-48
2021/10/05 07:03:05;;;;;;;2.90;2.52;;;9.40;93.70;;;;;;1905394;75;21027;-50
2021/10/05 07:05:34;;;;;;;3.72;3.12;;;9.40;93.70;;;;;;1905305;75;21055;-50
2021/10/05 07:08:08;;;;;;;5.25;3.65;;;9.40;93.80;;;;;;1905249;75;20996;-47
2021/10/05 07:10:39;;;;;;;4.47;3.02;;;9.40;93.70;;;;;;1905290;75;21055;-48
2021/10/05 07:13:08;;;;;;;4.45;3.50;;;9.40;93.70;;;;;;1905206;75;21081;-47
2021/10/05 07:15:38;;;;;;;3.67;3.02;;;9.40;93.70;;;;;;1905315;75;21007;-48
2021/10/05 07:18:09;;;;;;;3.42;2.92;;;9.40;93.70;;;;;;1905177;75;21058;-48
2021/10/05 07:20:38;;;;;;;3.83;3.22;;;9.40;93.80;;;;;;1905215;75;21442;-49
2021/10/05 07:23:07;;;;;;;3.62;2.47;;;9.40;93.70;;;;;;1905327;75;21019;-47
2021/10/05 07:25:37;;;;;;;3.47;2.40;;;9.40;93.80;;;;;;1905346;75;20999;-48
2021/10/05 07:28:08;;;;;;;2.35;2.00;;;9.40;93.80;;;;;;1905204;75;21015;-46
2021/10/05 07:30:37;;;;;;;4.28;3.00;;;9.40;93.70;;;;;;1905445;75;21466;-46
2021/10/05 07:33:07;;;;;;;6.05;4.65;;;9.40;93.70;;;;;;1905175;75;21015;-46
2021/10/05 07:35:36;;;;;;;6.78;4.20;;;9.40;93.80;;;;;;1905187;74;21015;-49
2021/10/05 07:38:06;;;;;;;3.37;3.08;;;9.50;93.80;;;;;;1905267;74;21447;-49
2021/10/05 07:40:36;;;;;;;6.58;4.60;;;9.50;93.80;;;;;;1905237;75;21098;-45
2021/10/05 07:43:05;;;;;;;6.12;4.58;;;9.50;93.70;;;;;;1905168;75;21148;-47
2021/10/05 07:45:37;;;;;;;5.00;4.15;;;9.50;93.80;;;;;;1905322;75;21003;-50
2021/10/05 07:48:06;;;;;;;3.85;2.62;;;9.50;93.80;;;;;;1905301;75;21454;-46
2021/10/05 07:50:36;;;;;;;3.70;2.70;;;9.50;93.70;;;;;;1905211;75;21039;-47
2021/10/05 07:53:05;;;;;;;3.08;2.30;;;9.60;93.70;;;;;;1905226;75;21122;-46
2021/10/05 07:55:35;;;;;;;4.65;4.00;;;9.60;93.70;;;;;;1905086;74;21023;-49
2021/10/05 07:58:04;;;;;;;4.10;3.50;;;9.60;94.00;;;;;;1905184;75;21085;-51
2021/10/05 08:00:33;;;;;;;5.08;3.60;;;9.60;93.70;;;;;;1903715;75;21090;-48
2021/10/05 08:03:03;;;;;;;3.47;2.87;;;9.60;93.70;;;;;;1908164;74;21133;-47
2021/10/05 08:05:33;;;;;;;4.17;2.37;;;9.60;93.70;;;;;;1924010;74;21046;-48
2021/10/05 08:08:08;;;;;;;5.53;4.25;;;9.60;93.60;;;;;;1923752;74;21074;-47
2021/10/05 08:10:38;;;;;;;4.62;3.22;;;9.60;93.50;;;;;;1923969;74;21051;-48
2021/10/05 08:13:08;;;;;;;5.30;3.80;;;9.70;93.50;;;;;;1923947;74;21080;-50
2021/10/05 08:15:38;;;;;;;4.50;3.20;;;9.70;93.40;;;;;;1923898;74;21081;-51
2021/10/05 08:18:08;;;;;;;6.42;5.00;;;9.70;93.40;;;;;;1924136;74;21030;-47
2021/10/05 08:20:39;;;;;;;4.92;3.67;;;9.70;93.40;;;;;;1891639;74;21139;-47
2021/10/05 08:23:08;;;;;;;14.53;8.73;;;9.70;93.40;;;;;;1890794;76;21131;-48
2021/10/05 08:25:37;;;;;;;8.45;5.60;;;9.70;93.50;;;;;;1890835;76;21077;-47
2021/10/05 08:28:07;;;;;;;4.62;3.47;;;9.70;93.40;;;;;;1890580;76;21024;-48
2021/10/05 08:30:36;;;;;;;8.68;5.42;;;9.70;93.40;;;;;;1890607;76;21002;-51
2021/10/05 08:33:06;;;;;;;4.67;3.77;;;9.80;93.30;;;;;;1890741;76;21121;-48
2021/10/05 08:35:35;;;;;;;7.35;5.65;;;9.80;93.20;;;;;;1890841;76;21109;-45
2021/10/05 08:38:05;;;;;;;6.12;4.58;;;9.80;93.40;;;;;;1890658;76;21003;-46
2021/10/05 08:40:34;;;;;;;5.33;3.70;;;9.80;93.20;;;;;;1890699;76;21109;-47
2021/10/05 08:43:04;;;;;;;4.28;3.75;;;9.80;93.10;;;;;;1890720;76;21097;-49
2021/10/05 08:45:33;;;;;;;5.15;4.65;;;9.80;93.10;;;;;;1890769;76;21026;-48
2021/10/05 08:48:03;;;;;;;13.20;4.80;;;9.80;93.40;;;;;;1890595;76;21026;-46
2021/10/05 08:50:32;;;;;;;7.60;5.53;;;9.80;93.10;;;;;;1890754;76;21092;-46
2021/10/05 08:53:01;;;;;;;6.03;4.62;;;9.80;93.20;;;;;;1890872;76;21074;-52
2021/10/05 08:55:31;;;;;;;3.45;2.65;;;9.80;93.10;;;;;;1890886;76;21156;-47
2021/10/05 08:58:00;;;;;;;5.87;3.70;;;9.80;93.20;;;;;;1890694;75;21343;-49
2021/10/05 09:00:35;;;;;;;7.08;3.75;;;9.90;93.10;;;;;;1890761;76;21034;-50
2021/10/05 09:03:04;;;;;;;5.83;4.53;;;9.80;93.10;;;;;;1890952;76;21543;-49
2021/10/05 09:05:34;;;;;;;6.67;5.08;;;9.90;93.20;;;;;;1872610;75;21090;-50
2021/10/05 09:08:04;;;;;;;8.55;4.80;;;9.80;93.20;;;;;;1872014;77;21102;-50
2021/10/05 09:10:36;;;;;;;3.55;2.98;;;9.90;93.10;;;;;;1872005;77;21171;-51
2021/10/05 09:13:05;;;;;;;8.00;4.45;;;9.90;93.10;;;;;;1859895;77;21050;-49
2021/10/05 09:15:35;;;;;;;7.25;5.35;;;9.90;93.10;;;;;;1872049;77;21145;-47
2021/10/05 09:18:04;;;;;;;4.90;4.12;;;9.90;93.10;;;;;;1871917;77;21074;-50
2021/10/05 09:20:35;;;;;;;6.33;4.83;;;9.90;93.10;;;;;;1871910;77;21097;-47
2021/10/05 09:23:13;;;;;;;6.45;4.92;;;10.00;93.10;;;;;;1872033;77;21137;-50
2021/10/05 09:25:54;;;;;;;7.33;5.70;;;10.00;93.20;;;;;;1871612;76;21074;-51
2021/10/05 09:28:22;;;;;;;9.80;6.97;;;10.00;93.10;;;;;;1871200;76;21051;-48
2021/10/05 09:31:06;;;;;;;5.58;4.80;;;10.00;93.00;;;;;;1871937;77;21144;-52
2021/10/05 09:33:37;;;;;;;6.20;4.62;;;10.10;93.10;;;;;;1872171;76;21039;-52
2021/10/05 09:36:07;;;;;;;4.83;4.15;;;10.10;93.00;;;;;;1872259;75;21093;-51
2021/10/05 09:38:36;;;;;;;7.72;5.70;;;10.10;92.80;;;;;;1872075;75;21034;-51
2021/10/05 09:41:09;;;;;;;8.05;6.15;;;10.10;92.90;;;;;;1872121;77;21093;-52
2021/10/05 09:43:38;;;;;;;6.87;4.83;;;10.10;92.90;;;;;;1872052;77;21489;-52
2021/10/05 09:46:17;;;;;;;7.20;5.42;;;10.10;92.80;;;;;;1872164;77;21042;-50
2021/10/05 09:48:47;;;;;;;5.50;3.55;;;10.20;92.70;;;;;;1872142;77;21615;-47
2021/10/05 09:51:24;;;;;;;5.45;4.67;;;10.20;92.60;;;;;;1872042;77;20999;-50
2021/10/05 09:53:55;;;;;;;3.05;2.62;;;10.20;92.60;;;;;;1871997;77;21097;-51
2021/10/05 09:56:26;;;;;;;4.85;4.22;;;10.20;92.40;;;;;;1872148;77;21031;-49
2021/10/05 09:58:57;;;;;;;6.17;4.53;;;10.20;92.40;;;;;;1871958;76;21031;-51
2021/10/05 10:01:28;;;;;;;4.92;4.22;;;10.30;92.50;;;;;;1872100;76;21090;-51
2021/10/05 10:03:57;;;;;;;6.47;4.28;;;10.30;92.40;;;;;;1872099;75;21071;-52
2021/10/05 10:06:27;;;;;;;5.28;4.25;;;10.40;92.40;;;;;;1872103;76;21474;-51
2021/10/05 10:08:57;;;;;;;5.17;4.35;;;10.40;92.30;;;;;;1872035;77;21023;-50
2021/10/05 10:11:26;;;;;;;5.67;3.87;;;10.40;92.30;;;;;;1872249;77;21015;-47
2021/10/05 10:13:57;;;;;;;5.53;4.28;;;10.50;91.90;;;;;;1871872;77;21086;-50
2021/10/05 10:16:27;;;;;;;5.35;4.72;;;10.50;92.00;;;;;;1872065;76;21094;-47
2021/10/05 10:18:58;;;;;;;5.97;4.33;;;10.50;91.90;;;;;;1872232;77;21089;-49
2021/10/05 10:21:33;;;;;;;8.73;5.37;;;10.50;91.90;;;;;;1871974;76;21098;-47
2021/10/05 10:24:10;;;;;;;7.87;6.15;;;10.60;91.90;;;;;;1872192;77;21046;-52
2021/10/05 10:26:43;;;;;;;5.00;4.50;;;10.60;91.90;;;;;;1872206;77;21074;-52
2021/10/05 10:29:14;;;;;;;6.60;5.15;;;10.60;91.90;;;;;;1872023;76;21509;-48
2021/10/05 10:31:44;;;;;;;6.00;4.37;;;10.60;91.60;;;;;;1872334;76;21036;-50
2021/10/05 10:34:24;;;;;;;7.65;4.58;;;10.60;91.70;;;;;;1871961;75;21077;-51
2021/10/05 10:36:53;;;;;;;4.60;3.90;;;10.60;91.60;;;;;;1872180;76;21081;-50
2021/10/05 10:39:25;;;;;;;7.28;5.40;;;10.60;91.50;;;;;;1872109;77;21030;-51
2021/10/05 10:41:56;;;;;;;6.55;5.40;;;10.60;91.70;;;;;;1871985;76;21086;-50
2021/10/05 10:44:30;;;;;;;5.47;3.87;;;10.70;91.80;;;;;;1872153;76;21470;-52
2021/10/05 10:47:11;;;;;;;6.75;4.58;;;10.70;91.50;;;;;;1872250;77;22158;-52
2021/10/05 10:49:42;;;;;;;7.53;4.92;;;10.70;91.50;;;;;;1871135;76;21054;-50
2021/10/05 10:52:11;;;;;;;9.03;5.75;;;10.70;91.50;;;;;;1871866;77;21090;-51
2021/10/05 10:54:40;;;;;;;6.15;4.87;;;10.70;91.60;;;;;;1872181;76;21023;-53
2021/10/05 10:57:10;;;;;;;5.17;4.50;;;10.80;91.60;;;;;;1871822;77;21137;-53
2021/10/05 10:59:40;;;;;;;5.17;3.47;;;10.80;91.40;;;;;;1871928;77;21023;-54
2021/10/05 11:02:09;;;;;;;9.13;4.85;;;10.80;91.30;;;;;;1872017;75;21023;-54
2021/10/05 11:04:39;;;;;;;4.95;4.30;;;10.80;91.40;;;;;;1873497;76;20999;-53
2021/10/05 11:07:10;;;;;;;6.00;4.80;;;10.80;91.30;;;;;;1890751;76;21073;-52
2021/10/05 11:09:39;;;;;;;8.08;6.17;;;10.80;91.30;;;;;;1890924;76;21476;-52
2021/10/05 11:12:09;;;;;;;4.10;3.65;;;10.90;91.30;;;;;;1890846;76;20995;-48
2021/10/05 11:14:41;;;;;;;4.72;4.20;;;10.90;91.30;;;;;;1890848;76;21113;-49
2021/10/05 11:17:11;;;;;;;5.28;4.28;;;10.90;91.30;;;;;;1891041;76;21042;-48
2021/10/05 11:19:42;;;;;;;5.80;4.25;;;10.90;91.30;;;;;;1920061;74;21074;-49
2021/10/05 11:22:14;;;;;;;4.72;4.22;;;10.90;91.20;;;;;;1924047;74;21187;-52
2021/10/05 11:24:48;;;;;;;5.85;4.08;;;10.90;91.40;;;;;;1923875;74;21072;-49
2021/10/05 11:27:22;;;;;;;8.55;4.83;;;10.90;91.30;;;;;;1923697;74;21084;-50
2021/10/05 11:29:53;;;;;;;8.05;4.25;;;11.00;91.20;;;;;;1924370;74;21073;-50
2021/10/05 11:32:22;;;;;;;6.03;4.00;;;11.00;91.00;;;;;;1923326;74;21536;-51
2021/10/05 11:34:52;;;;;;;4.03;3.10;;;11.00;91.00;;;;;;1923953;74;21070;-51
2021/10/05 11:37:23;;;;;;;7.12;4.33;;;11.00;90.80;;;;;;1923970;74;21105;-50
2021/10/05 11:39:52;;;;;;;3.83;3.20;;;11.00;90.90;;;;;;1923778;74;21124;-50
2021/10/05 11:42:24;;;;;;;5.03;4.37;;;11.10;91.00;;;;;;1923974;74;21022;-50
2021/10/05 11:44:58;;;;;;;5.15;4.00;;;11.10;91.00;;;;;;1924008;74;21018;-50
2021/10/05 11:47:29;;;;;;;5.50;4.92;;;11.10;90.90;;;;;;1923033;74;21472;-50
2021/10/05 11:50:03;;;;;;;4.15;3.00;;;11.10;90.80;;;;;;1923911;74;21084;-48
2021/10/05 11:52:35;;;;;;;4.22;3.55;;;11.20;90.80;;;;;;1923854;74;21094;-50
2021/10/05 11:55:05;;;;;;;5.55;4.85;;;11.20;90.60;;;;;;1923821;74;21147;-47
2021/10/05 11:57:37;;;;;;;6.62;4.15;;;11.20;90.80;;;;;;1923840;74;21078;-52
2021/10/05 12:00:08;;;;;;;6.47;4.70;;;11.20;90.70;;;;;;1923945;74;21519;-46
2021/10/05 12:02:44;;;;;;;4.50;3.62;;;11.20;90.80;;;;;;1923765;74;21238;-51
2021/10/05 12:05:26;;;;;;;3.92;3.20;;;11.20;90.60;;;;;;1923948;74;21047;-51
2021/10/05 12:07:58;;;;;;;6.62;4.28;;;11.30;90.60;;;;;;1923987;74;21136;-53
2021/10/05 12:10:27;;;;;;;6.60;4.28;;;11.30;90.70;;;;;;1922588;74;21084;-54
2021/10/05 12:12:57;;;;;;;7.47;3.15;;;11.30;90.70;;;;;;1923876;74;21084;-55
2021/10/05 12:15:28;;;;;;;3.40;3.10;;;11.30;90.60;;;;;;1923720;74;21022;-53
2021/10/05 12:18:11;;;;;;;5.20;3.87;;;11.30;90.70;;;;;;1923802;74;21605;-51
2021/10/05 12:20:37;;;;;;;6.50;4.37;;;11.30;90.60;;;;;;1923129;74;21066;-48
2021/10/05 12:23:10;;;;;;;6.50;4.22;;;11.30;90.70;;;;;;1923839;74;21070;-50
2021/10/05 12:25:41;;;;;;;3.90;3.50;;;11.30;90.50;;;;;;1923880;74;21054;-54
2021/10/05 12:28:10;;;;;;;4.37;3.65;;;11.30;90.50;;;;;;1923893;74;21019;-54
2021/10/05 12:30:40;;;;;;;5.12;4.10;;;11.30;90.40;;;;;;1923975;74;21084;-50
2021/10/05 12:33:13;;;;;;;5.22;4.00;;;11.30;90.40;;;;;;1923766;74;21073;-52
2021/10/05 12:35:44;;;;;;;4.53;3.33;;;11.40;90.50;;;;;;1924040;74;21089;-51
2021/10/05 12:38:21;;;;;;;4.00;3.33;;;11.30;90.30;;;;;;1923860;74;21554;-52
2021/10/05 12:40:55;;;;;;;7.03;4.15;;;11.40;90.20;;;;;;1924352;74;21092;-53
2021/10/05 12:43:39;;;;;;;4.47;2.65;;;11.40;90.30;;;;;;1924789;74;21027;-51
2021/10/05 12:46:11;;;;;;;3.27;2.70;;;11.40;90.10;;;;;;1924651;74;20995;-50
2021/10/05 12:48:45;;;;;;;4.12;3.15;;;11.40;90.00;;;;;;1924614;74;21019;-50
2021/10/05 12:51:16;;;;;;;4.05;2.87;;;11.40;89.80;;;;;;1924701;74;21023;-48
2021/10/05 12:53:48;;;;;;;3.92;3.27;;;11.40;90.00;;;;;;1924658;74;21039;-50
2021/10/05 12:56:24;;;;;;;5.47;4.15;;;11.40;90.00;;;;;;1924637;74;21027;-46
2021/10/05 12:58:49;;;;;;;5.05;3.20;;;11.40;90.10;;;;;;1924137;74;20991;-46
2021/10/05 13:01:20;;;;;;;4.42;2.70;;;11.40;90.10;;;;;;1924740;74;21026;-46
2021/10/05 13:03:49;;;;;;;3.33;2.80;;;11.40;90.00;;;;;;1924893;74;21417;-46
2021/10/05 13:06:19;;;;;;;7.15;3.92;;;11.40;89.90;;;;;;1918939;74;21039;-50
2021/10/05 13:08:49;;;;;;;4.28;2.92;;;11.40;90.00;;;;;;1905378;75;21086;-49
2021/10/05 13:11:19;;;;;;;4.17;3.75;;;11.40;89.60;;;;;;1905476;75;21035;-49